createdAt,value
2023-04-02T00:02:20.817Z,10.66
2023-04-02T00:05:30.429Z,10.62
2023-04-02T00:08:00.283Z,10.48
2023-04-02T00:10:38.040Z,10.42
2023-04-02T00:13:10.424Z,10.39
2023-04-02T00:15:41.664Z,10.14
2023-04-02T00:18:10.707Z,10.20
2023-04-02T00:20:40.756Z,10.21
2023-04-02T00:23:07.170Z,10.31
2023-04-02T00:25:42.683Z,10.39
2023-04-02T00:28:13.874Z,10.30
2023-04-02T00:30:48.708Z,10.34
2023-04-02T00:33:33.380Z,10.25
2023-04-02T00:36:00.228Z,10.27
2023-04-02T00:38:30.774Z,10.22
2023-04-02T00:41:01.734Z,10.23
2023-04-02T00:43:32.015Z,10.22
2023-04-02T00:46:03.670Z,10.24
2023-04-02T00:48:32.784Z,10.21
2023-04-02T00:51:37.629Z,10.18
2023-04-02T00:54:06.842Z,10.17
2023-04-02T00:56:42.633Z,10.11
2023-04-02T00:59:19.696Z,10.39
2023-04-02T01:01:54.170Z,10.61
2023-04-02T01:04:36.343Z,10.56
2023-04-02T01:07:06.813Z,10.57
2023-04-02T01:09:42.801Z,10.55
2023-04-02T01:12:15.061Z,10.60
2023-04-02T01:15:09.738Z,10.63
2023-04-02T01:17:39.094Z,10.58
2023-04-02T01:20:37.794Z,10.66
2023-04-02T01:23:16.932Z,10.72
2023-04-02T01:25:52.226Z,10.74
2023-04-02T01:28:25.664Z,10.77
2023-04-02T01:30:55.892Z,10.78
2023-04-02T01:33:25.126Z,10.70
2023-04-02T01:35:59.566Z,10.68
2023-04-02T01:38:38.080Z,10.74
2023-04-02T01:41:33.865Z,10.75
2023-04-02T01:44:07.962Z,10.76
2023-04-02T01:46:38.373Z,10.66
2023-04-02T01:49:14.417Z,10.57
2023-04-02T01:51:44.688Z,10.57
2023-04-02T01:54:13.693Z,10.54
2023-04-02T01:56:42.396Z,10.40
2023-04-02T01:59:11.130Z,10.40
2023-04-02T02:01:49.157Z,10.51
2023-04-02T02:04:17.092Z,10.55
2023-04-02T02:06:44.211Z,10.52
2023-04-02T02:09:18.114Z,10.54
2023-04-02T02:11:44.563Z,10.46
2023-04-02T02:14:18.701Z,10.42
2023-04-02T02:16:46.978Z,10.43
2023-04-02T02:19:36.105Z,10.45
2023-04-02T02:22:27.563Z,10.43
2023-04-02T02:24:56.247Z,10.44
2023-04-02T02:27:22.699Z,10.43
2023-04-02T02:30:17.497Z,10.40
2023-04-02T02:32:52.819Z,10.40
2023-04-02T02:35:24.009Z,10.35
2023-04-02T02:37:57.862Z,10.30
2023-04-02T02:40:32.742Z,10.26
2023-04-02T02:43:04.302Z,10.21
2023-04-02T02:45:37.674Z,10.11
2023-04-02T02:48:12.412Z,10.08
2023-04-02T02:50:40.123Z,10.00
2023-04-02T02:53:17.434Z,9.84
2023-04-02T02:55:44.334Z,9.75
2023-04-02T02:58:15.987Z,9.88
2023-04-02T03:00:43.616Z,9.86
2023-04-02T03:03:16.992Z,9.65
2023-04-02T03:05:44.648Z,9.72
2023-04-02T03:08:19.196Z,9.80
2023-04-02T03:10:54.081Z,9.84
2023-04-02T03:13:27.143Z,9.66
2023-04-02T03:16:16.260Z,9.55
2023-04-02T03:19:23.860Z,9.53
2023-04-02T03:22:19.402Z,9.60
2023-04-02T03:24:51.962Z,9.69
2023-04-02T03:27:22.889Z,9.66
2023-04-02T03:30:15.213Z,9.61
2023-04-02T03:32:44.342Z,9.68
2023-04-02T03:35:22.182Z,9.64
2023-04-02T03:37:58.472Z,9.49
2023-04-02T03:40:29.401Z,9.32
2023-04-02T03:43:06.421Z,9.39
2023-04-02T03:45:41.041Z,9.28
2023-04-02T03:48:26.469Z,9.38
2023-04-02T03:51:01.120Z,9.38
2023-04-02T03:53:29.587Z,9.38
2023-04-02T03:55:57.255Z,9.17
2023-04-02T03:58:29.666Z,9.03
2023-04-02T04:01:24.227Z,8.96
2023-04-02T04:03:54.119Z,8.86
2023-04-02T04:06:43.642Z,8.93
2023-04-02T04:09:37.617Z,8.95
2023-04-02T04:12:24.488Z,9.08
2023-04-02T04:15:01.845Z,9.08
2023-04-02T04:17:51.260Z,9.04
2023-04-02T04:20:24.013Z,9.07
2023-04-02T04:22:55.636Z,9.14
2023-04-02T04:25:34.030Z,9.17
2023-04-02T04:28:26.500Z,9.05
2023-04-02T04:31:04.034Z,9.16
2023-04-02T04:33:41.771Z,9.03
2023-04-02T04:36:27.673Z,8.84
2023-04-02T04:38:59.326Z,8.69
2023-04-02T04:41:32.160Z,8.69
2023-04-02T04:43:58.487Z,8.55
2023-04-02T04:46:38.611Z,8.44
2023-04-02T04:49:27.829Z,8.57
2023-04-02T04:51:59.042Z,8.77
2023-04-02T04:54:27.535Z,8.94
2023-04-02T04:56:59.558Z,9.04
2023-04-02T04:59:32.271Z,9.05
2023-04-02T05:02:09.685Z,9.11
2023-04-02T05:04:40.229Z,8.90
2023-04-02T05:07:21.373Z,8.80
2023-04-02T05:10:07.731Z,8.86
2023-04-02T05:12:44.066Z,9.10
2023-04-02T05:15:32.371Z,9.15
2023-04-02T05:18:37.659Z,9.07
2023-04-02T05:21:07.147Z,9.06
2023-04-02T05:24:08.667Z,8.88
2023-04-02T05:26:42.005Z,8.81
2023-04-02T05:29:24.251Z,8.87
2023-04-02T05:32:06.751Z,8.95
2023-04-02T05:34:37.324Z,8.88
2023-04-02T05:37:07.098Z,8.85
2023-04-02T05:39:33.853Z,8.80
2023-04-02T05:42:14.524Z,8.79
2023-04-02T05:44:55.598Z,8.81
2023-04-02T05:47:29.945Z,8.83
2023-04-02T05:50:08.461Z,8.89
2023-04-02T05:52:43.104Z,9.04
2023-04-02T05:55:12.547Z,9.00
2023-04-02T05:58:01.316Z,8.83
2023-04-02T06:00:39.579Z,8.82
2023-04-02T06:03:24.033Z,8.88
2023-04-02T06:05:52.949Z,9.07
2023-04-02T06:08:35.368Z,9.12
2023-04-02T06:11:12.212Z,9.05
2023-04-02T06:13:39.082Z,9.06
2023-04-02T06:16:06.575Z,9.19
2023-04-02T06:18:36.134Z,9.31
2023-04-02T06:21:03.616Z,9.52
2023-04-02T06:23:39.910Z,9.78
2023-04-02T06:26:38.389Z,9.95
2023-04-02T06:29:38.187Z,9.84
2023-04-02T06:32:09.814Z,9.72
2023-04-02T06:34:39.060Z,9.61
2023-04-02T06:37:17.358Z,9.67
2023-04-02T06:39:43.887Z,9.90
2023-04-02T06:42:16.601Z,10.23
2023-04-02T06:44:43.453Z,10.52
2023-04-02T06:47:21.797Z,10.65
2023-04-02T06:49:57.124Z,10.66
2023-04-02T06:52:29.197Z,10.71
2023-04-02T06:54:55.672Z,10.68
2023-04-02T06:57:22.240Z,10.76
2023-04-02T06:59:48.866Z,10.79
2023-04-02T07:02:21.240Z,10.88
2023-04-02T07:04:47.976Z,10.92
2023-04-02T07:07:14.387Z,10.91
2023-04-02T07:09:42.297Z,11.01
2023-04-02T07:12:15.081Z,11.05
2023-04-02T07:14:41.483Z,11.11
2023-04-02T07:17:16.033Z,11.12
2023-04-02T07:19:44.217Z,11.10
2023-04-02T07:22:10.721Z,11.08
2023-04-02T07:24:37.488Z,11.12
2023-04-02T07:27:04.017Z,11.21
2023-04-02T07:29:30.443Z,11.24
2023-04-02T07:31:56.872Z,11.23
2023-04-02T07:34:23.304Z,11.22
2023-04-02T07:36:49.681Z,11.31
2023-04-02T07:39:16.544Z,11.39
2023-04-02T07:42:00.843Z,11.52
2023-04-02T07:44:28.684Z,11.69
2023-04-02T07:46:55.636Z,11.72
2023-04-02T07:49:22.166Z,11.70
2023-04-02T07:51:48.649Z,11.77
2023-04-02T07:54:16.394Z,11.87
2023-04-02T07:56:42.795Z,12.07
2023-04-02T07:59:09.469Z,12.27
2023-04-02T08:01:36.593Z,12.36
2023-04-02T08:04:04.855Z,12.40
2023-04-02T08:06:31.632Z,12.43
2023-04-02T08:08:58.670Z,12.52
2023-04-02T08:11:25.103Z,12.59
2023-04-02T08:13:52.110Z,12.66
2023-04-02T08:16:19.340Z,12.73
2023-04-02T08:18:47.608Z,12.74
2023-04-02T08:21:16.290Z,12.89
2023-04-02T08:23:43.515Z,12.91
2023-04-02T08:26:23.505Z,13.08
2023-04-02T08:28:51.381Z,13.19
2023-04-02T08:31:18.047Z,13.07
2023-04-02T08:33:44.836Z,12.99
2023-04-02T08:36:27.488Z,12.95
2023-04-02T08:38:54.599Z,12.99
2023-04-02T08:41:32.482Z,12.92
2023-04-02T08:44:14.757Z,12.91
2023-04-02T08:47:01.318Z,12.93
2023-04-02T08:49:42.961Z,12.98
2023-04-02T08:52:25.773Z,13.04
2023-04-02T08:54:53.688Z,12.92
2023-04-02T08:58:09.964Z,13.10
2023-04-02T09:00:42.683Z,13.17
2023-04-02T09:03:19.688Z,13.25
2023-04-02T09:05:47.750Z,13.37
2023-04-02T09:08:19.163Z,13.35
2023-04-02T09:10:53.331Z,13.23
2023-04-02T09:13:29.160Z,13.05
2023-04-02T09:16:11.189Z,13.15
2023-04-02T09:18:38.842Z,13.34
2023-04-02T09:21:46.654Z,13.45
2023-04-02T09:24:13.374Z,13.73
2023-04-02T09:26:40.233Z,13.76
2023-04-02T09:29:12.499Z,13.92
2023-04-02T09:31:43.281Z,14.00
2023-04-02T09:34:35.536Z,14.09
2023-04-02T09:37:13.809Z,14.19
2023-04-02T09:39:41.017Z,14.12
2023-04-02T09:42:27.246Z,14.25
2023-04-02T09:44:53.752Z,14.31
2023-04-02T09:47:28.699Z,14.34
2023-04-02T09:49:55.843Z,14.24
2023-04-02T09:52:30.037Z,14.14
2023-04-02T09:55:24.111Z,14.62
2023-04-02T09:57:51.968Z,14.89
2023-04-02T10:00:41.589Z,14.96
2023-04-02T10:03:29.844Z,15.35
2023-04-02T10:06:12.250Z,16.04
2023-04-02T10:08:41.499Z,15.87
2023-04-02T10:11:22.987Z,16.03
2023-04-02T10:14:21.013Z,15.73
2023-04-02T10:17:23.338Z,16.13
2023-04-02T10:20:02.820Z,15.98
2023-04-02T10:22:29.637Z,15.77
2023-04-02T10:24:58.750Z,15.63
2023-04-02T10:27:57.532Z,15.43
2023-04-02T10:30:27.175Z,15.72
2023-04-02T10:33:06.065Z,15.69
2023-04-02T10:35:58.957Z,15.16
2023-04-02T10:39:04.880Z,15.01
2023-04-02T10:41:39.039Z,15.35
2023-04-02T10:44:36.740Z,15.62
2023-04-02T10:47:06.069Z,15.54
2023-04-02T10:49:48.788Z,15.89
2023-04-02T10:52:21.625Z,15.88
2023-04-02T10:54:51.210Z,16.08
2023-04-02T10:57:36.248Z,15.92
2023-04-02T11:00:12.544Z,15.99
2023-04-02T11:02:51.309Z,16.10
2023-04-02T11:05:20.835Z,16.22
2023-04-02T11:07:56.789Z,16.29
2023-04-02T11:10:23.777Z,16.06
2023-04-02T11:12:56.296Z,16.09
2023-04-02T11:15:23.505Z,16.30
2023-04-02T11:17:50.503Z,16.44
2023-04-02T11:20:47.723Z,16.42
2023-04-02T11:23:18.743Z,16.17
2023-04-02T11:25:46.380Z,16.47
2023-04-02T11:28:33.494Z,16.91
2023-04-02T11:31:00.225Z,16.93
2023-04-02T11:33:38.635Z,16.93
2023-04-02T11:36:46.903Z,16.96
2023-04-02T11:39:17.266Z,16.72
2023-04-02T11:42:19.473Z,16.35
2023-04-02T11:44:45.932Z,16.54
2023-04-02T11:47:16.568Z,16.68
2023-04-02T11:49:55.740Z,16.92
2023-04-02T11:52:28.679Z,16.92
2023-04-02T11:55:29.674Z,16.86
2023-04-02T11:58:02.272Z,16.91
2023-04-02T12:00:48.385Z,17.29
2023-04-02T12:03:14.812Z,17.21
2023-04-02T12:05:54.598Z,17.17
2023-04-02T12:08:28.880Z,17.10
2023-04-02T12:11:00.664Z,17.09
2023-04-02T12:13:47.998Z,16.98
2023-04-02T12:16:14.643Z,17.08
2023-04-02T12:18:47.007Z,17.01
2023-04-02T12:21:18.988Z,17.10
2023-04-02T12:23:47.708Z,17.08
2023-04-02T12:26:37.147Z,17.28
2023-04-02T12:29:15.894Z,17.30
2023-04-02T12:31:47.843Z,17.43
2023-04-02T12:34:16.959Z,17.23
2023-04-02T12:37:04.910Z,17.24
2023-04-02T12:39:33.585Z,17.47
2023-04-02T12:42:00.272Z,17.43
2023-04-02T12:44:29.987Z,17.72
2023-04-02T12:46:58.378Z,17.78
2023-04-02T12:49:46.606Z,17.78
2023-04-02T12:52:16.656Z,18.03
2023-04-02T12:54:52.793Z,18.14
2023-04-02T12:57:40.229Z,17.97
2023-04-02T13:00:22.324Z,17.93
2023-04-02T13:03:01.668Z,17.92
2023-04-02T13:05:42.708Z,17.60
2023-04-02T13:08:41.540Z,17.73
2023-04-02T13:11:08.865Z,17.68
2023-04-02T13:13:40.294Z,17.88
2023-04-02T13:16:09.920Z,17.82
2023-04-02T13:18:38.144Z,17.89
2023-04-02T13:21:25.767Z,18.02
2023-04-02T13:23:54.083Z,18.24
2023-04-02T13:26:26.517Z,18.03
2023-04-02T13:29:02.359Z,17.89
2023-04-02T13:31:30.901Z,17.88
2023-04-02T13:33:58.789Z,17.91
2023-04-02T13:36:26.050Z,18.17
2023-04-02T13:38:52.708Z,18.10
2023-04-02T13:41:21.446Z,18.10
2023-04-02T13:43:50.007Z,18.21
2023-04-02T13:46:22.125Z,18.40
2023-04-02T13:48:53.175Z,18.43
2023-04-02T13:51:20.918Z,18.45
2023-04-02T13:53:49.764Z,18.43
2023-04-02T13:56:16.613Z,18.52
2023-04-02T13:58:43.183Z,18.60
2023-04-02T14:01:10.129Z,18.36
2023-04-02T14:03:37.957Z,18.31
2023-04-02T14:06:19.045Z,18.38
2023-04-02T14:08:59.573Z,18.48
2023-04-02T14:11:42.633Z,18.38
2023-04-02T14:14:21.458Z,18.48
2023-04-02T14:17:14.880Z,18.51
2023-04-02T14:20:12.447Z,18.25
2023-04-02T14:23:00.885Z,18.16
2023-04-02T14:26:03.643Z,18.00
2023-04-02T14:28:49.248Z,18.00
2023-04-02T14:31:31.557Z,17.89
2023-04-02T14:34:39.331Z,18.00
2023-04-02T14:37:08.335Z,18.21
2023-04-02T14:39:47.230Z,18.26
2023-04-02T14:42:22.421Z,18.36
2023-04-02T14:45:01.207Z,18.28
2023-04-02T14:48:24.794Z,18.14
2023-04-02T14:50:55.758Z,18.08
2023-04-02T14:53:39.199Z,18.10
2023-04-02T14:56:08.131Z,18.00
2023-04-02T14:58:38.482Z,17.92
2023-04-02T15:01:21.714Z,17.97
2023-04-02T15:03:53.100Z,18.07
2023-04-02T15:06:25.620Z,17.91
2023-04-02T15:09:09.599Z,17.87
2023-04-02T15:11:40.486Z,17.91
2023-04-02T15:14:30.017Z,17.83
2023-04-02T15:16:56.522Z,17.80
2023-04-02T15:19:22.946Z,17.89
2023-04-02T15:22:19.215Z,17.79
2023-04-02T15:24:54.017Z,17.89
2023-04-02T15:27:35.699Z,18.07
2023-04-02T15:30:25.503Z,18.15
2023-04-02T15:32:55.944Z,18.15
2023-04-02T15:35:43.955Z,17.95
2023-04-02T15:38:23.278Z,18.05
2023-04-02T15:41:07.738Z,17.88
2023-04-02T15:43:37.260Z,17.73
2023-04-02T15:46:27.216Z,17.89
2023-04-02T15:48:56.449Z,17.96
2023-04-02T15:51:26.464Z,18.01
2023-04-02T15:53:55.884Z,18.01
2023-04-02T15:57:10.127Z,17.95
2023-04-02T15:59:36.475Z,17.91
2023-04-02T16:02:25.861Z,17.87
2023-04-02T16:05:26.141Z,17.77
2023-04-02T16:07:55.620Z,17.60
2023-04-02T16:10:37.991Z,17.41
2023-04-02T16:13:23.150Z,17.26
2023-04-02T16:16:03.426Z,17.25
2023-04-02T16:18:40.446Z,17.34
2023-04-02T16:21:07.640Z,17.25
2023-04-02T16:23:38.495Z,17.22
2023-04-02T16:26:21.889Z,17.22
2023-04-02T16:29:14.904Z,17.23
2023-04-02T16:32:04.551Z,17.21
2023-04-02T16:35:01.957Z,17.16
2023-04-02T16:37:49.358Z,17.07
2023-04-02T16:40:34.768Z,17.10
2023-04-02T16:43:11.317Z,17.10
2023-04-02T16:45:37.718Z,17.05
2023-04-02T16:48:19.457Z,16.98
2023-04-02T16:51:01.970Z,16.98
2023-04-02T16:54:01.018Z,16.98
2023-04-02T16:56:47.648Z,16.97
2023-04-02T16:59:27.265Z,16.98
2023-04-02T17:02:15.750Z,16.94
2023-04-02T17:04:57.285Z,16.90
2023-04-02T17:07:30.242Z,16.81
2023-04-02T17:10:11.405Z,16.73
2023-04-02T17:12:46.028Z,16.63
2023-04-02T17:15:28.577Z,16.55
2023-04-02T17:18:01.646Z,16.54
2023-04-02T17:20:28.901Z,16.48
2023-04-02T17:22:56.108Z,16.41
2023-04-02T17:25:30.522Z,16.41
2023-04-02T17:27:57.173Z,16.36
2023-04-02T17:30:44.322Z,16.31
2023-04-02T17:33:16.195Z,16.22
2023-04-02T17:35:49.297Z,16.19
2023-04-02T17:38:39.657Z,16.20
2023-04-02T17:41:21.126Z,16.10
2023-04-02T17:44:03.125Z,15.97
2023-04-02T17:46:58.846Z,15.91
2023-04-02T17:49:39.846Z,15.82
2023-04-02T17:52:17.962Z,15.76
2023-04-02T17:55:02.508Z,15.67
2023-04-02T17:57:52.450Z,15.67
2023-04-02T18:00:45.552Z,15.63
2023-04-02T18:03:36.211Z,15.54
2023-04-02T18:06:21.026Z,15.47
2023-04-02T18:09:11.767Z,15.42
2023-04-02T18:11:53.365Z,15.34
2023-04-02T18:14:38.490Z,15.26
2023-04-02T18:17:13.967Z,15.21
2023-04-02T18:19:53.935Z,15.16
2023-04-02T18:22:37.425Z,15.10
2023-04-02T18:25:39.813Z,14.95
2023-04-02T18:28:30.561Z,14.87
2023-04-02T18:31:36.055Z,14.80
2023-04-02T18:34:29.187Z,14.82
2023-04-02T18:37:28.532Z,14.81
2023-04-02T18:40:22.759Z,14.75
2023-04-02T18:42:55.348Z,14.68
2023-04-02T18:45:34.501Z,14.63
2023-04-02T18:48:28.881Z,14.54
2023-04-02T18:50:55.444Z,14.48
2023-04-02T18:53:25.335Z,14.44
2023-04-02T18:56:03.879Z,14.38
2023-04-02T18:58:49.413Z,14.32
2023-04-02T19:01:21.264Z,14.22
2023-04-02T19:03:53.244Z,14.24
2023-04-02T19:06:28.685Z,14.23
2023-04-02T19:09:00.834Z,14.28
2023-04-02T19:11:31.819Z,14.24
2023-04-02T19:14:07.172Z,14.14
2023-04-02T19:17:02.010Z,14.07
2023-04-02T19:19:35.764Z,14.01
2023-04-02T19:22:26.106Z,14.01
2023-04-02T19:25:20.660Z,13.92
2023-04-02T19:28:05.567Z,13.86
2023-04-02T19:30:47.232Z,13.83
2023-04-02T19:33:45.242Z,13.81
2023-04-02T19:36:42.112Z,13.82
2023-04-02T19:39:32.998Z,13.92
2023-04-02T19:42:18.091Z,13.91
2023-04-02T19:44:48.409Z,13.88
2023-04-02T19:47:17.156Z,13.87
2023-04-02T19:49:44.171Z,13.90
2023-04-02T19:52:10.663Z,13.91
2023-04-02T19:54:38.464Z,13.88
2023-04-02T19:57:05.923Z,13.85
2023-04-02T19:59:32.504Z,13.87
2023-04-02T20:01:59.037Z,13.74
2023-04-02T20:04:25.619Z,13.56
2023-04-02T20:06:52.273Z,13.45
2023-04-02T20:09:18.711Z,13.56
2023-04-02T20:11:45.491Z,13.64
2023-04-02T20:14:11.948Z,13.59
2023-04-02T20:16:38.781Z,13.59
2023-04-02T20:19:05.401Z,13.39
2023-04-02T20:21:37.938Z,13.33
2023-04-02T20:24:06.703Z,13.34
2023-04-02T20:26:34.763Z,13.33
2023-04-02T20:29:01.514Z,13.23
2023-04-02T20:31:28.132Z,13.17
2023-04-02T20:33:56.551Z,13.12
2023-04-02T20:36:24.635Z,13.18
2023-04-02T20:38:51.735Z,13.24
2023-04-02T20:41:19.486Z,13.09
2023-04-02T20:43:46.007Z,12.99
2023-04-02T20:46:13.049Z,13.00
2023-04-02T20:48:40.627Z,12.88
2023-04-02T20:51:09.354Z,12.86
2023-04-02T20:53:37.194Z,12.77
2023-04-02T20:56:11.997Z,12.58
2023-04-02T20:58:39.769Z,12.47
2023-04-02T21:01:16.777Z,12.43
2023-04-02T21:03:46.289Z,12.34
2023-04-02T21:06:14.920Z,12.31
2023-04-02T21:08:41.648Z,12.31
2023-04-02T21:11:09.121Z,12.37
2023-04-02T21:13:36.991Z,12.28
2023-04-02T21:16:05.780Z,12.40
2023-04-02T21:18:32.248Z,12.50
2023-04-02T21:21:03.970Z,12.33
2023-04-02T21:23:31.547Z,12.23
2023-04-02T21:26:00.220Z,12.33
2023-04-02T21:28:27.450Z,12.22
2023-04-02T21:31:20.526Z,12.20
2023-04-02T21:33:49.822Z,12.20
2023-04-02T21:36:18.346Z,12.17
2023-04-02T21:38:46.995Z,12.06
2023-04-02T21:41:24.650Z,11.98
2023-04-02T21:43:51.323Z,11.95
2023-04-02T21:46:21.144Z,11.82
2023-04-02T21:48:48.891Z,11.67
2023-04-02T21:51:26.879Z,11.54
2023-04-02T21:53:54.211Z,11.42
2023-04-02T21:56:27.664Z,11.35
2023-04-02T21:58:55.268Z,11.33
2023-04-02T22:01:27.640Z,11.40
2023-04-02T22:03:56.287Z,11.43
2023-04-02T22:06:24.859Z,11.35
2023-04-02T22:09:00.290Z,11.23
2023-04-02T22:11:30.422Z,11.23
2023-04-02T22:13:57.747Z,11.16
2023-04-02T22:16:27.224Z,11.10
2023-04-02T22:18:56.186Z,11.06
2023-04-02T22:21:26.539Z,11.03
2023-04-02T22:23:53.072Z,10.96
2023-04-02T22:26:21.395Z,10.94
2023-04-02T22:28:47.835Z,10.95
2023-04-02T22:31:20.514Z,11.02
2023-04-02T22:33:47.778Z,11.19
2023-04-02T22:36:15.893Z,11.24
2023-04-02T22:38:42.609Z,11.18
2023-04-02T22:41:10.344Z,11.20
2023-04-02T22:43:37.705Z,11.25
2023-04-02T22:46:05.579Z,11.37
2023-04-02T22:48:32.345Z,11.36
2023-04-02T22:50:58.891Z,11.40
2023-04-02T22:53:25.794Z,11.39
2023-04-02T22:55:52.774Z,11.30
2023-04-02T22:58:20.771Z,11.27
2023-04-02T23:00:48.408Z,11.37
2023-04-02T23:03:14.834Z,11.40
2023-04-02T23:05:42.459Z,11.43
2023-04-02T23:08:09.091Z,11.43
2023-04-02T23:10:35.950Z,11.41
2023-04-02T23:13:02.594Z,11.39
2023-04-02T23:15:29.004Z,11.18
2023-04-02T23:17:55.528Z,11.08
2023-04-02T23:20:21.983Z,11.12
2023-04-02T23:22:48.394Z,11.03
2023-04-02T23:25:14.852Z,11.04
2023-04-02T23:27:41.779Z,11.19
2023-04-02T23:30:08.682Z,11.21
2023-04-02T23:32:35.440Z,11.05
2023-04-02T23:35:01.954Z,10.84
2023-04-02T23:37:28.380Z,10.71
2023-04-02T23:39:54.777Z,10.59
2023-04-02T23:42:21.241Z,10.56
2023-04-02T23:44:47.701Z,10.66
2023-04-02T23:47:14.103Z,10.72
2023-04-02T23:49:42.111Z,10.73
2023-04-02T23:52:08.507Z,10.78
2023-04-02T23:54:34.895Z,10.59
2023-04-02T23:57:01.385Z,10.51
2023-04-02T23:59:28.085Z,10.58
